Time;durP1;ratioP1;P1;durP2;ratioP2;P2;SDS_P1;SDS_P2;PMS_P1;PMS_P2;Temp;Humidity;BMP_temperature;BMP_pressure;BME280_temperature;BME280_humidity;BME280_pressure;Samples;Min_cycle;Max_cycle;Signal;HPM_P1;HPM_P2
2021/08/04 00:01:17;;;;;;;3.23;2.20;;;;;;;17.87;63.01;100514.25;5044771;28;20204;-71
2021/08/04 00:03:43;;;;;;;3.73;2.40;;;;;;;17.87;63.07;100516.97;5044418;28;20220;-71
2021/08/04 00:06:11;;;;;;;3.13;2.30;;;;;;;17.89;62.96;100514.97;5047003;28;20226;-71
2021/08/04 00:08:38;;;;;;;5.13;2.53;;;;;;;17.90;63.11;100513.13;5040949;28;20209;-71
2021/08/04 00:11:04;;;;;;;2.90;2.53;;;;;;;17.91;63.12;100520.22;5031986;28;20251;-71
2021/08/04 00:13:31;;;;;;;4.57;2.60;;;;;;;17.93;63.12;100512.81;5025287;28;20212;-73
2021/08/04 00:15:57;;;;;;;3.90;2.40;;;;;;;17.93;62.97;100519.03;5021231;28;20240;-73
2021/08/04 00:18:24;;;;;;;3.70;2.50;;;;;;;17.92;63.18;100513.81;5033832;28;20656;-73
2021/08/04 00:20:51;;;;;;;3.37;2.40;;;;;;;17.90;63.01;100522.06;5020760;28;20207;-73
2021/08/04 00:23:19;;;;;;;3.27;2.97;;;;;;;17.89;63.22;100516.81;5027940;28;20205;-73
2021/08/04 00:25:46;;;;;;;4.03;2.10;;;;;;;17.89;63.23;100516.81;5029061;28;20236;-73
2021/08/04 00:28:12;;;;;;;4.27;2.33;;;;;;;17.88;63.06;100521.34;5027124;28;20214;-73
2021/08/04 00:30:39;;;;;;;2.73;2.53;;;;;;;17.88;63.29;100509.72;5028513;28;20249;-72
2021/08/04 00:33:05;;;;;;;5.37;2.57;;;;;;;17.88;63.36;100507.88;5029276;28;20214;-73
2021/08/04 00:35:32;;;;;;;2.93;2.50;;;;;;;17.88;63.47;100512.44;5035593;28;20213;-72
2021/08/04 00:37:58;;;;;;;2.87;2.63;;;;;;;17.88;63.60;100513.28;5033935;28;20205;-72
2021/08/04 00:40:26;;;;;;;4.40;2.53;;;;;;;17.87;63.63;100514.25;5032619;28;20680;-73
2021/08/04 00:42:53;;;;;;;3.37;2.37;;;;;;;17.88;63.70;100517.81;5026347;28;20217;-73
2021/08/04 00:45:19;;;;;;;3.43;2.60;;;;;;;17.89;63.93;100516.81;5034014;28;20205;-72
2021/08/04 00:47:46;;;;;;;4.70;2.60;;;;;;;17.92;63.91;100511.97;5033763;28;20212;-73
2021/08/04 00:50:13;;;;;;;3.50;2.30;;;;;;;17.91;63.78;100514.81;5029356;28;20230;-73
2021/08/04 00:52:39;;;;;;;3.00;2.57;;;;;;;17.89;63.75;100514.97;5030035;28;20220;-73
2021/08/04 00:55:07;;;;;;;2.67;2.40;;;;;;;17.89;63.75;100511.44;5026803;28;20664;-73
2021/08/04 00:57:35;;;;;;;3.90;2.40;;;;;;;17.87;63.99;100508.88;5030151;28;20229;-73
2021/08/04 01:00:03;;;;;;;3.53;2.43;;;;;;;17.86;64.20;100512.56;5026815;28;20464;-73
2021/08/04 01:02:37;;;;;;;4.23;2.53;;;;;;;17.86;64.36;100509.03;5029706;28;20209;-72
2021/08/04 01:05:06;;;;;;;2.73;2.47;;;;;;;17.85;64.51;100512.72;5032580;28;20200;-73
2021/08/04 01:07:38;;;;;;;3.23;2.60;;;;;;;17.83;65.05;100512.00;5027825;28;20244;-73
2021/08/04 01:10:10;;;;;;;3.57;3.07;;;;;;;17.81;65.14;100517.53;5031701;28;20235;-71
2021/08/04 01:12:45;;;;;;;3.40;2.90;;;;;;;17.79;65.17;100516.84;5037417;28;20209;-71
2021/08/04 01:15:14;;;;;;;5.17;3.13;;;;;;;17.75;65.53;100515.41;5042312;28;20208;-71
2021/08/04 01:17:52;;;;;;;3.20;2.50;;;;;;;17.73;65.71;100517.44;5038342;28;20233;-71
2021/08/04 01:20:22;;;;;;;3.53;2.73;;;;;;;17.70;66.24;100520.41;5034783;28;20205;-71
2021/08/04 01:23:02;;;;;;;3.40;3.00;;;;;;;17.69;66.18;100518.72;5039280;28;20209;-71
2021/08/04 01:25:32;;;;;;;3.37;2.60;;;;;;;17.69;66.01;100521.41;5033347;28;20208;-71
2021/08/04 01:28:20;;;;;;;2.50;2.20;;;;;;;17.64;65.64;100511.06;5031668;28;20205;-71
2021/08/04 01:30:49;;;;;;;4.63;2.30;;;;;;;17.62;65.38;100514.88;5043758;28;20231;-70
2021/08/04 01:33:16;;;;;;;4.90;2.53;;;;;;;17.59;65.57;100521.38;5033520;28;20206;-71
2021/08/04 01:35:44;;;;;;;2.97;2.13;;;;;;;17.56;65.13;100512.75;5040917;28;20220;-70
2021/08/04 01:38:13;;;;;;;3.17;2.27;;;;;;;17.56;65.18;100510.06;5032935;28;20204;-70
2021/08/04 01:40:42;;;;;;;2.90;2.40;;;;;;;17.55;64.94;100513.75;5038101;28;20204;-73
2021/08/04 01:43:11;;;;;;;3.30;2.47;;;;;;;17.55;64.90;100511.06;5031115;28;20203;-73
2021/08/04 01:45:40;;;;;;;3.57;2.60;;;;;;;17.54;64.91;100512.06;5036751;28;20231;-73
2021/08/04 01:48:07;;;;;;;3.50;2.70;;;;;;;17.53;64.89;100511.22;5041502;28;20209;-73
2021/08/04 01:50:35;;;;;;;3.70;2.37;;;;;;;17.54;64.80;100510.22;5032638;28;20589;-73
2021/08/04 01:53:02;;;;;;;4.10;2.50;;;;;;;17.54;64.76;100510.22;5039617;28;20213;-73
2021/08/04 01:55:28;;;;;;;2.90;2.40;;;;;;;17.55;64.66;100513.75;5031452;28;20667;-72
2021/08/04 01:57:55;;;;;;;2.67;2.47;;;;;;;17.53;64.88;100508.53;5036704;28;20224;-73
2021/08/04 02:00:22;;;;;;;5.47;2.77;;;;;;;17.53;64.93;100504.97;5029997;28;20207;-71
2021/08/04 02:02:49;;;;;;;3.83;2.73;;;;;;;17.54;65.11;100504.00;5035514;28;20209;-71
2021/08/04 02:05:16;;;;;;;4.23;2.63;;;;;;;17.52;65.00;100497.91;5034600;28;20284;-71
2021/08/04 02:08:07;;;;;;;2.87;2.67;;;;;;;17.51;64.84;100501.59;5031388;28;20215;-71
2021/08/04 02:10:45;;;;;;;3.90;2.57;;;;;;;17.49;65.40;100490.09;5035216;28;20258;-71
2021/08/04 02:13:27;;;;;;;3.00;2.70;;;;;;;17.49;65.14;100498.19;5034433;28;20206;-71
2021/08/04 02:16:00;;;;;;;2.93;2.60;;;;;;;17.48;65.33;100496.47;5028774;28;20234;-71
2021/08/04 02:18:32;;;;;;;3.07;2.77;;;;;;;17.47;65.24;100495.63;5031661;28;20607;-71
2021/08/04 02:21:02;;;;;;;3.10;2.80;;;;;;;17.47;65.35;100502.84;5027836;28;20588;-70
2021/08/04 02:23:35;;;;;;;4.23;2.67;;;;;;;17.47;65.52;100506.41;5022180;28;20205;-70
2021/08/04 02:26:07;;;;;;;3.37;2.17;;;;;;;17.48;65.57;100493.78;5023770;28;20230;-71
2021/08/04 02:28:37;;;;;;;3.10;2.40;;;;;;;17.47;65.37;100501.00;5018456;28;20213;-71
2021/08/04 02:31:06;;;;;;;4.27;2.83;;;;;;;17.46;65.61;100493.94;5018016;28;20282;-73
2021/08/04 02:33:34;;;;;;;3.03;2.80;;;;;;;17.46;65.61;100493.94;5031237;28;20588;-73
2021/08/04 02:36:01;;;;;;;3.13;2.50;;;;;;;17.46;65.47;100495.78;5026941;28;20234;-73
2021/08/04 02:38:30;;;;;;;3.87;2.80;;;;;;;17.45;65.63;100496.75;5022296;28;20216;-71
2021/08/04 02:40:57;;;;;;;3.87;2.67;;;;;;;17.43;65.62;100496.91;5031254;28;20211;-71
2021/08/04 02:43:24;;;;;;;3.17;2.60;;;;;;;17.44;65.29;100497.75;5015274;28;20215;-71
2021/08/04 02:45:52;;;;;;;2.87;2.40;;;;;;;17.43;65.58;100483.44;5015394;28;20216;-74
2021/08/04 02:48:20;;;;;;;4.33;2.97;;;;;;;17.43;65.63;100486.13;5012984;28;20204;-73
2021/08/04 02:50:51;;;;;;;3.40;3.00;;;;;;;17.44;65.69;100500.44;5010935;28;20612;-73
2021/08/04 02:53:19;;;;;;;4.67;3.23;;;;;;;17.44;65.83;100497.75;5017568;28;20197;-73
2021/08/04 02:55:49;;;;;;;5.30;3.00;;;;;;;17.43;65.90;100493.38;5014536;28;20234;-73
2021/08/04 02:58:15;;;;;;;3.97;3.17;;;;;;;17.43;65.93;100494.22;5030325;28;20207;-73
2021/08/04 03:00:42;;;;;;;3.37;3.00;;;;;;;17.45;65.82;100491.38;5023670;28;20671;-73
2021/08/04 03:03:09;;;;;;;3.03;2.70;;;;;;;17.44;65.87;100497.75;5032535;28;20219;-73
2021/08/04 03:05:35;;;;;;;4.30;2.57;;;;;;;17.44;66.09;100505.84;5043678;28;20207;-73
2021/08/04 03:08:03;;;;;;;3.83;2.83;;;;;;;17.43;65.92;100496.91;5016773;28;20582;-72
2021/08/04 03:10:30;;;;;;;5.90;2.80;;;;;;;17.43;65.90;100501.44;5031707;28;20228;-70
2021/08/04 03:12:57;;;;;;;3.00;2.70;;;;;;;17.40;65.96;100499.03;5013405;28;20205;-72
2021/08/04 03:15:23;;;;;;;4.33;2.73;;;;;;;17.37;66.04;100502.88;5028285;28;20205;-73
2021/08/04 03:17:50;;;;;;;3.00;2.70;;;;;;;17.34;66.09;100503.16;5023667;28;20208;-73
2021/08/04 03:20:17;;;;;;;2.83;2.60;;;;;;;17.31;66.39;100507.00;5028689;28;20200;-73
2021/08/04 03:22:45;;;;;;;3.43;2.57;;;;;;;17.29;66.40;100497.38;5012697;28;20286;-73
2021/08/04 03:25:15;;;;;;;3.33;2.83;;;;;;;17.26;66.69;100503.03;5028949;28;20213;-73
2021/08/04 03:27:41;;;;;;;3.80;2.90;;;;;;;17.24;66.65;100503.16;5029542;28;20239;-73
2021/08/04 03:30:09;;;;;;;5.87;3.07;;;;;;;17.23;66.90;100506.84;5023821;28;20202;-73
2021/08/04 03:32:36;;;;;;;3.13;2.90;;;;;;;17.23;66.97;100506.00;5031820;28;20207;-73
2021/08/04 03:35:03;;;;;;;3.80;3.10;;;;;;;17.21;67.16;100514.22;5023869;28;20698;-73
2021/08/04 03:37:29;;;;;;;5.20;3.20;;;;;;;17.20;67.12;100511.66;5022406;28;20725;-72
2021/08/04 03:39:56;;;;;;;3.97;2.93;;;;;;;17.18;67.22;100511.84;5023201;28;20232;-73
2021/08/04 03:42:24;;;;;;;4.00;3.60;;;;;;;17.17;67.43;100511.97;5028917;28;20203;-73
2021/08/04 03:44:50;;;;;;;3.13;2.93;;;;;;;17.13;67.28;100508.72;5020936;28;20658;-73
2021/08/04 03:47:17;;;;;;;4.00;3.00;;;;;;;17.11;67.37;100516.06;5024575;28;20574;-73
2021/08/04 03:49:44;;;;;;;4.53;3.00;;;;;;;17.08;67.40;100513.66;5030324;28;20588;-73
2021/08/04 03:52:10;;;;;;;4.27;3.13;;;;;;;17.08;67.67;100521.75;5028370;28;20229;-72
2021/08/04 03:54:37;;;;;;;3.27;2.97;;;;;;;17.06;67.57;100510.25;5028363;28;20207;-70
2021/08/04 03:57:04;;;;;;;5.50;3.00;;;;;;;17.04;67.78;100511.38;5021291;28;20227;-71
2021/08/04 03:59:32;;;;;;;3.73;3.27;;;;;;;17.03;67.84;100518.63;5029348;28;20200;-69
2021/08/04 04:01:58;;;;;;;6.50;3.20;;;;;;;16.99;67.86;100520.75;5038194;28;20205;-73
2021/08/04 04:04:25;;;;;;;5.07;3.10;;;;;;;16.97;68.01;100520.03;5021204;28;20225;-73
2021/08/04 04:06:51;;;;;;;4.30;2.83;;;;;;;16.94;68.23;100517.63;5031329;28;20220;-73
2021/08/04 04:09:19;;;;;;;3.97;3.07;;;;;;;16.91;68.21;100523.28;5026636;28;20205;-73
2021/08/04 04:11:45;;;;;;;3.23;2.93;;;;;;;16.88;68.33;100523.56;5033212;28;20232;-73
2021/08/04 04:14:12;;;;;;;3.63;3.07;;;;;;;16.87;68.49;100521.00;5024509;28;20206;-72
2021/08/04 04:16:40;;;;;;;3.90;3.10;;;;;;;16.85;68.70;100526.53;5041684;22;20255;-83
2021/08/04 04:19:07;;;;;;;8.17;3.60;;;;;;;16.84;68.79;100527.53;5036890;28;20210;-82
2021/08/04 04:21:34;;;;;;;5.30;3.67;;;;;;;16.83;68.86;100528.53;5038204;28;20742;-83
2021/08/04 04:24:01;;;;;;;4.37;3.60;;;;;;;16.82;69.16;100532.22;5038570;28;20204;-82
2021/08/04 04:26:27;;;;;;;5.90;3.33;;;;;;;16.82;69.15;100542.13;5038325;28;20205;-83
2021/08/04 04:28:54;;;;;;;3.87;3.10;;;;;;;16.81;69.35;100535.03;5038833;28;20565;-83
2021/08/04 04:31:20;;;;;;;3.57;3.27;;;;;;;16.81;69.55;100540.44;5038494;28;20703;-83
2021/08/04 04:33:48;;;;;;;3.67;3.37;;;;;;;16.81;69.64;100543.13;5037974;28;20206;-84
2021/08/04 04:36:15;;;;;;;3.40;3.03;;;;;;;16.80;69.78;100539.56;5037967;28;20216;-84
2021/08/04 04:38:41;;;;;;;4.27;3.20;;;;;;;16.80;69.90;100542.25;5036470;28;20205;-82
2021/08/04 04:41:08;;;;;;;5.53;3.63;;;;;;;16.82;70.02;100545.66;5037827;28;20209;-83
2021/08/04 04:43:36;;;;;;;3.63;3.33;;;;;;;16.84;70.15;100540.16;5037088;28;20304;-84
2021/08/04 04:46:03;;;;;;;3.40;3.10;;;;;;;16.85;70.14;100544.50;5037309;28;20223;-84
2021/08/04 04:48:29;;;;;;;4.47;3.37;;;;;;;16.86;70.30;100543.53;5037381;28;20217;-84
2021/08/04 04:50:57;;;;;;;5.17;3.30;;;;;;;16.86;70.32;100544.38;5037531;28;20239;-85
2021/08/04 04:53:24;;;;;;;3.97;3.67;;;;;;;16.88;70.22;100538.84;5037636;28;20303;-83
2021/08/04 04:55:50;;;;;;;5.80;4.37;;;;;;;16.90;70.33;100544.94;5037877;28;20207;-84
2021/08/04 04:58:17;;;;;;;4.20;3.80;;;;;;;16.93;70.23;100544.69;5038890;28;20288;-82
2021/08/04 05:00:43;;;;;;;6.27;3.90;;;;;;;16.93;70.28;100556.28;5036312;28;20211;-83
2021/08/04 05:03:10;;;;;;;4.03;3.60;;;;;;;16.94;70.29;100549.91;5037874;28;20240;-83
2021/08/04 05:05:36;;;;;;;4.30;3.70;;;;;;;16.95;70.41;100553.47;5036841;28;20209;-83
2021/08/04 05:08:05;;;;;;;5.07;3.47;;;;;;;16.96;70.44;100550.63;5037351;28;20241;-84
2021/08/04 05:10:31;;;;;;;4.40;3.83;;;;;;;16.97;70.52;100554.16;5077118;22;20723;-74
2021/08/04 05:12:58;;;;;;;5.13;3.90;;;;;;;16.98;70.46;100555.88;5072488;28;20207;-74
2021/08/04 05:15:25;;;;;;;3.70;3.40;;;;;;;17.01;70.51;100558.28;5072992;28;20203;-74
2021/08/04 05:17:51;;;;;;;6.07;4.10;;;;;;;17.02;70.55;100559.13;5067901;28;20223;-74
2021/08/04 05:20:18;;;;;;;3.80;3.43;;;;;;;17.02;70.36;100554.56;5062123;28;20304;-75
2021/08/04 05:22:44;;;;;;;4.47;3.87;;;;;;;17.04;70.31;100567.91;5085384;22;20238;-73
2021/08/04 05:25:12;;;;;;;3.87;3.47;;;;;;;17.02;70.36;100558.13;5041123;28;20292;-73
2021/08/04 05:27:39;;;;;;;3.97;3.63;;;;;;;17.00;70.42;100564.66;5044464;28;20293;-72
2021/08/04 05:30:07;;;;;;;5.97;3.53;;;;;;;17.02;70.50;100571.56;5051557;28;20208;-70
2021/08/04 05:32:33;;;;;;;4.30;3.90;;;;;;;17.02;70.35;100566.19;5036742;28;20235;-73
2021/08/04 05:35:00;;;;;;;4.27;3.60;;;;;;;17.04;70.63;100567.91;5016631;28;20205;-72
2021/08/04 05:37:26;;;;;;;4.67;4.10;;;;;;;17.04;70.41;100563.38;5025567;28;20217;-73
2021/08/04 05:39:53;;;;;;;4.43;3.80;;;;;;;17.05;70.56;100567.75;5025496;28;20205;-73
2021/08/04 05:42:20;;;;;;;4.33;3.80;;;;;;;17.05;70.48;100573.13;5026550;28;20692;-73
2021/08/04 05:44:47;;;;;;;5.90;4.00;;;;;;;17.07;70.46;100575.69;5024916;28;20213;-73
2021/08/04 05:47:15;;;;;;;3.93;3.53;;;;;;;17.09;70.52;100577.25;5030280;28;20205;-73
2021/08/04 05:49:42;;;;;;;3.63;3.33;;;;;;;17.12;70.45;100576.13;5025502;28;20209;-71
2021/08/04 05:52:09;;;;;;;4.33;3.87;;;;;;;17.14;70.48;100572.31;5024428;28;20229;-73
2021/08/04 05:54:35;;;;;;;3.90;3.57;;;;;;;17.20;70.57;100578.94;5024213;28;20212;-73
2021/08/04 05:57:02;;;;;;;4.50;3.73;;;;;;;17.24;70.38;100577.69;5025528;28;20557;-71
2021/08/04 05:59:29;;;;;;;4.97;4.03;;;;;;;17.30;70.25;100572.59;5026865;28;20210;-73
2021/08/04 06:01:56;;;;;;;3.97;3.67;;;;;;;17.35;70.22;100574.88;5016206;28;20211;-73
2021/08/04 06:04:22;;;;;;;5.43;4.40;;;;;;;17.42;70.08;100569.75;5022240;28;20226;-73
2021/08/04 06:06:49;;;;;;;5.03;3.60;;;;;;;17.47;69.89;100572.88;5024134;28;20597;-73
2021/08/04 06:09:15;;;;;;;4.80;4.07;;;;;;;17.54;69.84;100572.16;5020524;28;20742;-74
2021/08/04 06:11:42;;;;;;;4.40;3.43;;;;;;;17.63;69.37;100584.75;5024649;28;20232;-73
2021/08/04 06:14:08;;;;;;;4.43;4.00;;;;;;;17.65;68.62;100585.50;5024948;28;20292;-73
2021/08/04 06:16:36;;;;;;;4.07;3.47;;;;;;;17.71;68.43;100588.59;5023750;28;20208;-73
2021/08/04 06:19:03;;;;;;;4.20;3.60;;;;;;;17.75;68.07;100595.38;5022771;28;20213;-70
2021/08/04 06:21:30;;;;;;;4.00;3.57;;;;;;;17.78;67.57;100595.09;5019508;28;20210;-73
2021/08/04 06:23:56;;;;;;;3.63;3.33;;;;;;;17.80;67.28;100602.03;5025008;28;20238;-74
2021/08/04 06:26:23;;;;;;;3.43;3.07;;;;;;;17.83;66.96;100593.69;5022190;28;20207;-72
2021/08/04 06:28:50;;;;;;;3.93;3.30;;;;;;;17.87;66.59;100597.78;5009636;28;20231;-73
2021/08/04 06:31:16;;;;;;;3.40;3.10;;;;;;;17.92;66.46;100603.56;5010838;28;20366;-73
2021/08/04 06:33:44;;;;;;;3.77;3.20;;;;;;;18.00;66.03;100594.78;5010144;28;20231;-73
2021/08/04 06:36:11;;;;;;;3.20;2.90;;;;;;;18.04;65.54;100602.41;5017891;28;20207;-74
2021/08/04 06:38:38;;;;;;;3.43;3.13;;;;;;;18.08;65.37;100607.53;5016838;28;20207;-73
2021/08/04 06:41:04;;;;;;;3.60;3.30;;;;;;;18.11;65.02;100607.22;5016764;28;20209;-73
2021/08/04 06:43:31;;;;;;;4.10;3.30;;;;;;;18.14;65.28;100609.63;5017153;28;20239;-73
2021/08/04 06:45:58;;;;;;;4.07;3.40;;;;;;;18.18;64.84;100605.63;5010135;28;20627;-74
2021/08/04 06:48:24;;;;;;;4.00;3.20;;;;;;;18.25;64.93;100601.38;5010543;28;20485;-73
2021/08/04 06:50:52;;;;;;;4.57;3.43;;;;;;;18.32;64.80;100608.69;5008921;28;20216;-73
2021/08/04 06:53:18;;;;;;;5.77;3.10;;;;;;;18.36;64.54;100606.56;5008059;28;20575;-73
2021/08/04 06:55:45;;;;;;;3.60;2.97;;;;;;;18.42;64.44;100605.97;5010091;28;20207;-73
2021/08/04 06:58:11;;;;;;;3.90;3.33;;;;;;;18.49;64.27;100617.00;5013992;28;20208;-71
2021/08/04 07:00:39;;;;;;;4.33;2.90;;;;;;;18.55;64.05;100608.31;5015375;28;20583;-70
2021/08/04 07:03:06;;;;;;;3.23;3.00;;;;;;;18.58;63.87;100606.19;5012139;28;20220;-68
2021/08/04 07:05:32;;;;;;;4.70;3.23;;;;;;;18.62;63.58;100607.63;5012571;28;20680;-70
2021/08/04 07:08:00;;;;;;;3.53;3.20;;;;;;;18.65;63.35;100609.16;5013593;28;20208;-73
2021/08/04 07:10:27;;;;;;;3.43;3.13;;;;;;;18.69;63.04;100615.94;5013310;28;20219;-73
2021/08/04 07:12:53;;;;;;;3.67;3.37;;;;;;;18.75;63.32;100609.97;5013465;28;20231;-71
2021/08/04 07:15:20;;;;;;;3.97;3.53;;;;;;;18.83;63.23;100614.59;5013100;28;20212;-70
2021/08/04 07:17:49;;;;;;;5.50;3.63;;;;;;;18.91;63.42;100614.69;5015396;28;20213;-70
2021/08/04 07:20:18;;;;;;;4.17;3.77;;;;;;;18.97;63.12;100617.66;5013628;28;20211;-71
2021/08/04 07:22:45;;;;;;;4.53;3.97;;;;;;;19.01;62.91;100612.75;5013273;28;20231;-71
2021/08/04 07:25:13;;;;;;;4.93;3.77;;;;;;;19.08;63.14;100614.72;5010919;28;20201;-71
2021/08/04 07:27:40;;;;;;;3.63;3.30;;;;;;;19.13;63.03;100616.13;5014579;28;20211;-70
2021/08/04 07:30:10;;;;;;;3.70;3.40;;;;;;;19.18;62.87;100617.34;5010906;28;20210;-70
2021/08/04 07:32:37;;;;;;;4.73;3.40;;;;;;;19.19;62.18;100616.34;5006217;28;20237;-70
2021/08/04 07:35:04;;;;;;;4.50;3.13;;;;;;;19.20;62.06;100619.88;5007986;28;20210;-70
2021/08/04 07:37:31;;;;;;;4.87;3.57;;;;;;;19.23;61.74;100617.72;5004850;28;20299;-69
2021/08/04 07:39:58;;;;;;;4.60;3.73;;;;;;;19.27;61.51;100619.13;5008546;28;20207;-71
2021/08/04 07:42:27;;;;;;;3.80;3.40;;;;;;;19.33;61.18;100618.53;5005510;28;20220;-71
2021/08/04 07:44:55;;;;;;;3.70;3.10;;;;;;;19.40;61.10;100621.44;5008111;28;20223;-71
2021/08/04 07:47:22;;;;;;;3.70;3.33;;;;;;;19.47;60.67;100619.81;5012355;28;20218;-71
2021/08/04 07:49:49;;;;;;;3.50;3.20;;;;;;;19.53;60.12;100619.22;5010923;28;20210;-71
2021/08/04 07:52:15;;;;;;;4.70;3.10;;;;;;;19.59;60.07;100624.00;5009455;28;20251;-70
2021/08/04 07:54:42;;;;;;;3.57;3.27;;;;;;;19.64;60.01;100626.25;5008029;28;20210;-69
2021/08/04 07:57:08;;;;;;;3.93;3.50;;;;;;;19.68;59.52;100616.84;5010329;28;20226;-70
2021/08/04 07:59:36;;;;;;;5.47;3.00;;;;;;;19.73;59.69;100628.84;5009747;28;20232;-70
2021/08/04 08:02:04;;;;;;;4.60;2.90;;;;;;;19.80;59.45;100626.38;5007251;28;20202;-71
2021/08/04 08:04:30;;;;;;;4.93;3.00;;;;;;;19.86;59.28;100624.91;5006505;28;20216;-70
2021/08/04 08:06:58;;;;;;;4.60;3.20;;;;;;;19.94;59.44;100620.41;5010625;28;20680;-70
2021/08/04 08:09:24;;;;;;;7.97;3.13;;;;;;;20.01;58.83;100621.47;5007937;28;20612;-73
2021/08/04 08:11:52;;;;;;;4.00;3.03;;;;;;;20.04;58.72;100620.31;5010392;28;20226;-73
2021/08/04 08:14:18;;;;;;;3.97;2.87;;;;;;;20.08;58.84;100613.56;5008213;28;20220;-71
2021/08/04 08:16:46;;;;;;;3.20;2.60;;;;;;;20.14;58.94;100621.03;5009885;28;20689;-69
2021/08/04 08:19:13;;;;;;;3.40;3.10;;;;;;;20.22;58.71;100615.69;5009084;28;20585;-72
2021/08/04 08:21:40;;;;;;;3.13;2.83;;;;;;;20.31;58.78;100620.13;5010434;28;20207;-72
2021/08/04 08:24:07;;;;;;;3.57;2.70;;;;;;;20.39;58.47;100617.50;5006714;28;20261;-70
2021/08/04 08:26:34;;;;;;;3.50;2.90;;;;;;;20.47;58.04;100616.69;5008988;28;20200;-72
2021/08/04 08:29:00;;;;;;;3.77;3.23;;;;;;;20.54;57.70;100614.19;5006420;28;20201;-72
2021/08/04 08:31:27;;;;;;;3.10;2.73;;;;;;;20.58;57.32;100615.56;5006376;28;20667;-72
2021/08/04 08:33:59;;;;;;;3.67;3.00;;;;;;;20.63;57.42;100618.63;5007001;28;20252;-72
2021/08/04 08:36:26;;;;;;;4.37;2.60;;;;;;;20.68;57.32;100618.97;5007711;28;20214;-72
2021/08/04 08:38:52;;;;;;;3.80;2.67;;;;;;;20.73;57.35;100616.66;5006556;28;20203;-72
2021/08/04 08:41:19;;;;;;;3.43;2.47;;;;;;;20.79;56.84;100618.69;5004466;28;20212;-72
2021/08/04 08:43:47;;;;;;;3.03;2.73;;;;;;;20.87;57.01;100615.16;5009601;28;20218;-72
2021/08/04 08:46:15;;;;;;;3.17;2.90;;;;;;;20.94;56.72;100613.50;5006669;28;20807;-72
2021/08/04 08:48:45;;;;;;;3.30;2.90;;;;;;;20.99;56.39;100620.09;5000849;28;20218;-72
2021/08/04 08:51:15;;;;;;;5.20;3.07;;;;;;;21.06;56.21;100625.72;5004968;28;20220;-72
2021/08/04 08:53:42;;;;;;;3.20;2.90;;;;;;;21.13;56.02;100615.94;5006965;28;20249;-72
2021/08/04 08:56:09;;;;;;;3.42;2.38;;;;;;;21.19;55.88;100615.25;5008123;28;20210;-72
2021/08/04 08:58:35;;;;;;;4.72;2.92;;;;;;;21.23;55.37;100611.22;5004727;28;20199;-71
2021/08/04 09:01:02;;;;;;;2.87;2.57;;;;;;;21.28;55.14;100606.16;5009548;28;20225;-70
2021/08/04 09:03:28;;;;;;;4.07;3.00;;;;;;;21.35;55.35;100603.59;5008889;28;20227;-70
2021/08/04 09:05:57;;;;;;;3.13;2.43;;;;;;;21.42;55.62;100605.50;5009165;28;20212;-72
2021/08/04 09:08:27;;;;;;;4.50;2.97;;;;;;;21.51;55.51;100611.75;5007433;28;20214;-72
2021/08/04 09:10:54;;;;;;;4.40;3.60;;;;;;;21.59;55.40;100611.75;5004810;28;20677;-72
2021/08/04 09:13:31;;;;;;;4.15;3.22;;;;;;;21.62;55.07;100611.44;5010820;28;20265;-72
2021/08/04 09:16:05;;;;;;;3.75;3.30;;;;;;;21.68;55.31;100612.59;5012300;28;20209;-73
2021/08/04 09:18:40;;;;;;;3.80;2.97;;;;;;;21.77;55.42;100611.59;5011790;28;20209;-70
2021/08/04 09:21:07;;;;;;;3.97;3.58;;;;;;;21.84;55.02;100618.03;5012016;28;20202;-71
2021/08/04 09:23:42;;;;;;;3.65;3.03;;;;;;;21.89;54.98;100612.94;5012482;28;20931;-72
2021/08/04 09:26:11;;;;;;;5.90;3.10;;;;;;;21.92;54.29;100603.59;5008445;28;20264;-72
2021/08/04 09:28:56;;;;;;;3.92;2.90;;;;;;;21.96;54.32;100605.81;5009176;28;20247;-72
2021/08/04 09:31:43;;;;;;;3.92;3.33;;;;;;;22.00;54.10;100600.94;5010220;28;20210;-72
2021/08/04 09:34:28;;;;;;;3.28;2.97;;;;;;;22.04;54.42;100592.25;5009673;28;20253;-72
2021/08/04 09:36:59;;;;;;;5.50;3.30;;;;;;;22.11;54.40;100598.69;5009983;28;20228;-71
2021/08/04 09:39:27;;;;;;;3.90;3.08;;;;;;;22.16;53.38;100598.19;5008638;28;20207;-72
2021/08/04 09:41:54;;;;;;;3.83;3.20;;;;;;;22.20;53.45;100598.69;5007737;28;20206;-71
2021/08/04 09:44:21;;;;;;;3.38;3.00;;;;;;;22.26;53.58;100587.13;5004097;28;20246;-72
2021/08/04 09:46:47;;;;;;;3.80;3.10;;;;;;;22.31;53.23;100577.44;5005765;28;20694;-72
2021/08/04 09:49:16;;;;;;;5.65;3.22;;;;;;;22.37;53.24;100582.19;5008626;28;20207;-72
2021/08/04 09:51:43;;;;;;;3.72;3.05;;;;;;;22.42;52.87;100579.78;5007848;28;20199;-72
2021/08/04 09:54:11;;;;;;;3.70;3.35;;;;;;;22.48;52.76;100580.94;5007304;28;20246;-71
2021/08/04 09:57:01;;;;;;;3.83;3.03;;;;;;;22.56;52.81;100582.78;5007855;28;20206;-72
2021/08/04 09:59:27;;;;;;;6.15;2.97;;;;;;;22.59;52.30;100583.25;5005359;28;20210;-72
2021/08/04 10:01:56;;;;;;;4.72;3.30;;;;;;;22.58;52.13;100575.28;5008154;28;20202;-72
2021/08/04 10:04:22;;;;;;;3.60;3.17;;;;;;;22.60;52.33;100576.81;5009325;28;20243;-72
2021/08/04 10:06:49;;;;;;;3.75;3.30;;;;;;;22.66;52.39;100581.53;5009712;28;20216;-72
2021/08/04 10:09:17;;;;;;;3.40;3.10;;;;;;;22.73;52.42;100574.41;5006093;28;20210;-72
2021/08/04 10:11:47;;;;;;;5.63;3.10;;;;;;;22.82;52.09;100572.50;5018182;28;20218;-72
2021/08/04 10:14:17;;;;;;;4.20;2.83;;;;;;;22.90;51.80;100579.78;5011297;28;22096;-73
2021/08/04 10:16:46;;;;;;;3.53;3.10;;;;;;;22.94;51.48;100575.66;5009407;28;20230;-72
2021/08/04 10:19:13;;;;;;;3.53;3.22;;;;;;;22.99;51.40;100575.97;5010887;28;20738;-72
2021/08/04 10:21:43;;;;;;;3.67;3.00;;;;;;;23.07;51.11;100578.66;5008795;28;20694;-72
2021/08/04 10:24:12;;;;;;;4.00;3.20;;;;;;;23.13;50.76;100583.34;5009685;28;20314;-72
2021/08/04 10:26:40;;;;;;;4.93;3.20;;;;;;;23.22;50.48;100574.13;5010321;28;20245;-72
2021/08/04 10:29:07;;;;;;;3.53;3.22;;;;;;;23.27;50.31;100579.03;5010307;28;20737;-73
2021/08/04 10:31:37;;;;;;;4.85;3.22;;;;;;;23.33;50.24;100575.56;5011509;28;20215;-71
2021/08/04 10:34:04;;;;;;;4.47;3.30;;;;;;;23.42;50.29;100578.03;5009021;28;20230;-73
2021/08/04 10:36:34;;;;;;;3.83;3.42;;;;;;;23.52;50.00;100575.09;5011195;28;20694;-72
2021/08/04 10:39:06;;;;;;;3.90;3.30;;;;;;;23.62;49.17;100570.28;5015701;28;20289;-73
2021/08/04 10:41:33;;;;;;;4.10;3.70;;;;;;;23.73;49.08;100568.97;5019634;28;20210;-72
2021/08/04 10:44:00;;;;;;;3.80;2.92;;;;;;;23.85;48.43;100565.59;5018387;28;20758;-73
2021/08/04 10:46:43;;;;;;;5.78;3.63;;;;;;;23.97;48.51;100562.44;5016168;28;20215;-73
2021/08/04 10:49:24;;;;;;;4.05;3.65;;;;;;;24.09;47.97;100567.25;5013566;28;20238;-70
2021/08/04 10:52:09;;;;;;;6.22;3.70;;;;;;;24.26;47.70;100556.19;5012278;28;20706;-72
2021/08/04 10:54:36;;;;;;;5.57;3.78;;;;;;;24.38;46.97;100558.25;5009169;28;20234;-73
2021/08/04 10:57:10;;;;;;;3.72;3.38;;;;;;;24.53;47.05;100558.25;5015506;28;20207;-73
2021/08/04 10:59:39;;;;;;;4.85;3.60;;;;;;;24.67;45.79;100553.81;5016050;28;20212;-71
2021/08/04 11:02:33;;;;;;;3.92;3.40;;;;;;;24.81;46.41;100547.50;5016175;28;20651;-71
2021/08/04 11:05:01;;;;;;;4.35;3.95;;;;;;;24.94;44.52;100550.38;5013261;28;20223;-72
2021/08/04 11:07:27;;;;;;;3.95;3.47;;;;;;;24.99;44.40;100550.66;5013578;28;20209;-72
2021/08/04 11:10:03;;;;;;;6.45;3.47;;;;;;;25.00;44.61;100548.78;5010981;28;20208;-73
2021/08/04 11:12:47;;;;;;;5.50;3.00;;;;;;;24.96;44.15;100550.19;5008125;28;20236;-70
2021/08/04 11:15:25;;;;;;;4.72;3.22;;;;;;;24.95;44.28;100543.91;5007095;28;20209;-72
2021/08/04 11:18:14;;;;;;;3.60;3.05;;;;;;;24.99;44.13;100542.47;5005614;28;20209;-72
2021/08/04 11:21:11;;;;;;;3.92;3.28;;;;;;;24.99;44.57;100547.94;4998788;28;20203;-73
2021/08/04 11:23:49;;;;;;;3.92;2.85;;;;;;;24.97;44.09;100532.81;5058605;22;20238;-75
2021/08/04 11:26:26;;;;;;;4.53;2.92;;;;;;;24.99;44.21;100537.03;5067283;28;20666;-73
2021/08/04 11:28:53;;;;;;;5.15;3.22;;;;;;;25.03;43.54;100540.22;5068640;28;20694;-73
2021/08/04 11:31:20;;;;;;;4.97;3.38;;;;;;;25.00;43.08;100543.31;5068857;28;20222;-75